»·PEaware :: PAA576 KPDX-KLAS

PAA576 :: KPDX-KLAS

FLIGHT INFORMATION

Flight Status: Arrived
Operator:
PanAm
More flights by this operator :: More flights under this callsign
Pilot: Anonymous 8274 (8274)
Aircraft: BOEING 727-200
(B722)
More flights by this aircraft type
Origin: KPDX Portland Intl
United States
Destination: KLAS McCarran Intl
United States
More flights between these airports :: More routes between these airports
Route: +PTLD1 BTG J189 LMT J92 BTY FUZZY8
File this flight plan on PilotEdge
Remarks:
Altitude:
(Current/Filed)
31,000ft
Speed:
(Current/Filed)
460kts
Departed: 24-Aug-18 05:38 PM
Arrived: 24-Aug-18 07:30 PM
Distance/Time
Traveled:
663nm/1:52
Distance/Time
To Go:
Arrived

Flight Plot

Page will automatically refresh every two minutes.

Flight plan parsing failed; only flown route is shown


Map Options




Map Legend


Flown Route
Filed Route
Departure Airport
Arrival Airport
Navaid (VOR, NDB)
Fix

Horizontal Profiles

Position Reports

Time Latitude Longitude Heading Altitude Ground
Speed
24-Aug-18 16:46 45.589686 -122.596866 203 41ft 0kts
24-Aug-18 16:47 45.589686 -122.596866 203 41ft 0kts
24-Aug-18 16:48 45.589686 -122.596866 203 41ft 0kts
24-Aug-18 16:49 45.589686 -122.596866 203 41ft 0kts
24-Aug-18 16:50 45.589686 -122.596866 203 41ft 0kts
24-Aug-18 16:51 45.589686 -122.596866 203 41ft 0kts
24-Aug-18 16:52 45.589686 -122.596866 203 41ft 0kts
24-Aug-18 16:53 45.589686 -122.596866 203 41ft 0kts
24-Aug-18 16:54 45.589686 -122.596866 203 41ft 0kts
24-Aug-18 16:55 45.589686 -122.596866 203 41ft 0kts
24-Aug-18 16:56 45.589686 -122.596866 203 41ft 0kts
24-Aug-18 16:57 45.589686 -122.596866 203 41ft 0kts
24-Aug-18 16:58 45.589686 -122.596866 203 41ft 0kts
24-Aug-18 16:59 45.589686 -122.596866 203 41ft 0kts
24-Aug-18 17:00 45.589686 -122.596866 203 41ft 0kts
24-Aug-18 17:01 45.589686 -122.596866 203 41ft 0kts
24-Aug-18 17:02 45.589686 -122.596866 203 41ft 0kts
24-Aug-18 17:03 45.589686 -122.596866 203 41ft 0kts
24-Aug-18 17:04 45.589686 -122.596866 203 41ft 0kts
24-Aug-18 17:05 45.589686 -122.596866 203 41ft 0kts
24-Aug-18 17:06 45.589686 -122.596866 203 41ft 0kts
24-Aug-18 17:07 45.589686 -122.596866 203 41ft 0kts
24-Aug-18 17:08 45.589686 -122.596866 203 41ft 0kts
24-Aug-18 17:09 45.589686 -122.596866 203 41ft 0kts
24-Aug-18 17:10 45.589686 -122.596866 203 41ft 0kts
24-Aug-18 17:11 45.589686 -122.596866 203 41ft 0kts
24-Aug-18 17:12 45.589686 -122.596866 203 41ft 0kts
24-Aug-18 17:13 45.589686 -122.596866 203 41ft 0kts
24-Aug-18 17:14 45.589686 -122.596866 203 41ft 0kts
24-Aug-18 17:15 45.589686 -122.596866 203 41ft 0kts
24-Aug-18 17:16 45.589686 -122.596866 203 41ft 0kts
24-Aug-18 17:17 45.589686 -122.596866 203 41ft 0kts
24-Aug-18 17:18 45.589686 -122.596866 203 41ft 0kts
24-Aug-18 17:19 45.589686 -122.596866 203 41ft 0kts
24-Aug-18 17:20 45.589686 -122.596866 203 41ft 0kts
24-Aug-18 17:21 45.589686 -122.596866 203 41ft 0kts
24-Aug-18 17:22 45.589961 -122.596693 203 41ft 2kts
24-Aug-18 17:23 45.590119 -122.596059 305 41ft 1kts
24-Aug-18 17:24 45.590091 -122.595999 300 41ft 0kts
24-Aug-18 17:25 45.590091 -122.595999 300 41ft 0kts
24-Aug-18 17:26 45.590091 -122.595999 300 41ft 0kts
24-Aug-18 17:27 45.590091 -122.595999 300 41ft 0kts
24-Aug-18 17:28 45.590291 -122.596482 300 41ft 9kts
24-Aug-18 17:29 45.590924 -122.598174 298 41ft 0kts
24-Aug-18 17:30 45.591465 -122.598747 350 41ft 13kts
24-Aug-18 17:31 45.592711 -122.593489 118 41ft 23kts
24-Aug-18 17:32 45.588868 -122.583668 119 41ft 35kts
24-Aug-18 17:33 45.583895 -122.570850 119 41ft 37kts
24-Aug-18 17:34 45.582733 -122.567473 73 41ft 0kts
24-Aug-18 17:35 45.582733 -122.567473 73 41ft 0kts
24-Aug-18 17:36 45.582733 -122.567473 73 40ft 0kts
24-Aug-18 17:37 45.582733 -122.567473 73 40ft 0kts
24-Aug-18 17:38 45.583731 -122.567164 299 41ft 9kts
24-Aug-18 17:39 45.594869 -122.595804 297 405ft 159kts
24-Aug-18 17:40 45.615698 -122.658862 292 2660ft 210kts
24-Aug-18 17:41 45.642419 -122.748106 292 5382ft 277kts
24-Aug-18 17:42 45.674280 -122.852506 294 5933ft 272kts
24-Aug-18 17:43 45.737429 -122.869274 45 7931ft 279kts
24-Aug-18 17:44 45.753193 -122.759593 87 10395ft 303kts
24-Aug-18 17:45 45.754956 -122.631140 89 12601ft 328kts
24-Aug-18 17:46 45.753528 -122.498479 89 14857ft 342kts
24-Aug-18 17:47 45.713692 -122.382389 155 16838ft 361kts
24-Aug-18 17:48 45.614339 -122.399056 194 18618ft 376kts
24-Aug-18 17:49 45.512420 -122.439727 194 20245ft 388kts
24-Aug-18 17:50 45.405666 -122.463686 186 21716ft 397kts
24-Aug-18 17:51 45.296376 -122.468323 166 23273ft 402kts
24-Aug-18 17:52 45.187143 -122.430955 177 24478ft 407kts
24-Aug-18 17:53 45.074115 -122.420175 177 25594ft 413kts
24-Aug-18 17:54 44.959565 -122.400236 171 26581ft 421kts
24-Aug-18 17:55 44.846179 -122.370712 169 27495ft 427kts
24-Aug-18 17:56 44.730576 -122.336370 170 28339ft 432kts
24-Aug-18 17:57 44.613224 -122.301378 169 29106ft 437kts
24-Aug-18 17:58 44.493179 -122.267792 171 29763ft 442kts
24-Aug-18 17:59 44.372360 -122.237616 171 30440ft 446kts
24-Aug-18 18:00 44.250359 -122.206974 171 30948ft 452kts
24-Aug-18 18:01 44.125357 -122.175593 171 31050ft 466kts
24-Aug-18 18:02 43.995647 -122.143133 171 31052ft 482kts
24-Aug-18 18:03 43.866330 -122.112609 173 31051ft 494kts
24-Aug-18 18:04 43.731040 -122.085498 173 31047ft 493kts
24-Aug-18 18:05 43.596155 -122.058427 173 31047ft 491kts
24-Aug-18 18:06 43.461567 -122.031323 173 31047ft 489kts
24-Aug-18 18:07 43.327597 -122.005379 174 31048ft 488kts
24-Aug-18 18:08 43.193584 -121.981493 174 31048ft 487kts
24-Aug-18 18:09 43.060346 -121.952318 172 31048ft 487kts
24-Aug-18 18:10 42.927904 -121.920883 170 31049ft 486kts
24-Aug-18 18:11 42.801015 -121.885845 170 31048ft 486kts
24-Aug-18 18:12 42.668967 -121.849374 170 31048ft 485kts
24-Aug-18 18:13 42.537066 -121.813053 170 31048ft 485kts
24-Aug-18 18:14 42.404974 -121.780570 173 31048ft 484kts
24-Aug-18 18:15 42.272196 -121.755155 173 31049ft 483kts
24-Aug-18 18:16 42.145711 -121.699559 154 31049ft 485kts
24-Aug-18 18:17 42.026768 -121.615019 148 31054ft 485kts
24-Aug-18 18:18 41.913510 -121.518788 148 31050ft 486kts
24-Aug-18 18:19 41.805434 -121.426932 148 31050ft 486kts
24-Aug-18 18:20 41.697708 -121.341779 153 31049ft 485kts
24-Aug-18 18:21 41.579994 -121.254272 151 31048ft 485kts
24-Aug-18 18:22 41.464403 -121.163408 150 31048ft 485kts
24-Aug-18 18:23 41.348243 -121.072111 150 31048ft 485kts
24-Aug-18 18:24 41.234448 -120.977076 148 31048ft 485kts
24-Aug-18 18:25 41.121485 -120.881280 148 31049ft 485kts
24-Aug-18 18:26 41.007722 -120.784848 148 31049ft 486kts
24-Aug-18 18:27 40.898190 -120.692054 148 31049ft 486kts
24-Aug-18 18:28 40.786805 -120.597747 148 31049ft 486kts
24-Aug-18 18:29 40.671689 -120.506484 151 31050ft 485kts
24-Aug-18 18:30 40.555129 -120.418781 151 31049ft 485kts
24-Aug-18 18:31 40.441679 -120.339522 153 31048ft 485kts
24-Aug-18 18:32 40.323127 -120.257423 153 31047ft 485kts
24-Aug-18 18:33 40.205134 -120.175024 151 31047ft 485kts
24-Aug-18 18:34 40.089975 -120.084827 149 31047ft 485kts
24-Aug-18 18:35 39.976702 -119.990938 149 31055ft 484kts
24-Aug-18 18:36 39.868430 -119.901273 149 31076ft 483kts
24-Aug-18 18:37 39.752676 -119.815455 153 31076ft 481kts
24-Aug-18 18:38 39.635545 -119.732862 153 31076ft 481kts
24-Aug-18 18:39 39.522454 -119.642182 132 31027ft 485kts
24-Aug-18 18:40 39.431722 -119.515444 134 31022ft 484kts
24-Aug-18 18:41 39.330060 -119.403311 139 31020ft 481kts
24-Aug-18 18:42 39.237923 -119.283869 135 31020ft 482kts
24-Aug-18 18:43 39.146397 -119.158956 135 31013ft 483kts
24-Aug-18 18:44 39.054409 -119.033449 135 30966ft 484kts
24-Aug-18 18:45 38.962194 -118.907605 134 30966ft 484kts
24-Aug-18 18:46 38.872944 -118.785762 134 30968ft 484kts
24-Aug-18 18:47 38.778656 -118.664701 138 30969ft 483kts
24-Aug-18 18:48 38.680313 -118.547756 138 30969ft 484kts
24-Aug-18 18:49 38.575581 -118.442333 145 30969ft 481kts
24-Aug-18 18:50 38.476594 -118.342569 141 30967ft 482kts
24-Aug-18 18:51 38.377505 -118.228875 139 30978ft 483kts
24-Aug-18 18:52 38.283183 -118.108905 136 31021ft 483kts
24-Aug-18 18:53 38.191167 -117.984431 134 31021ft 483kts
24-Aug-18 18:54 38.099987 -117.859480 134 31021ft 484kts
24-Aug-18 18:55 38.008810 -117.734441 134 31021ft 485kts
24-Aug-18 18:56 37.910859 -117.620530 152 31038ft 478kts
24-Aug-18 18:57 37.802263 -117.543195 153 31022ft 479kts
24-Aug-18 18:58 37.683369 -117.468340 155 31023ft 479kts
24-Aug-18 18:59 37.564001 -117.393132 151 31013ft 481kts
24-Aug-18 19:00 37.458737 -117.311039 149 31021ft 482kts
24-Aug-18 19:01 37.346488 -117.219139 147 31021ft 484kts
24-Aug-18 19:02 37.235014 -117.125288 146 31038ft 485kts
24-Aug-18 19:03 37.122593 -117.031478 147 31049ft 487kts
24-Aug-18 19:04 37.010308 -116.937063 147 30940ft 491kts
24-Aug-18 19:05 36.899922 -116.844330 146 30535ft 488kts
24-Aug-18 19:06 36.802222 -116.743028 138 28157ft 479kts
24-Aug-18 19:07 36.717439 -116.621624 130 25620ft 442kts
24-Aug-18 19:08 36.643638 -116.509588 132 23924ft 411kts
24-Aug-18 19:09 36.565187 -116.399224 132 23922ft 444kts
24-Aug-18 19:10 36.491367 -116.295787 132 23398ft 425kts
24-Aug-18 19:11 36.414140 -116.188908 133 21678ft 411kts
24-Aug-18 19:12 36.339073 -116.086836 133 18924ft 396kts
24-Aug-18 19:13 36.267664 -115.988422 133 16487ft 369kts
24-Aug-18 19:14 36.205922 -115.900550 133 16016ft 320kts
24-Aug-18 19:15 36.171191 -115.801864 111 16021ft 312kts
24-Aug-18 19:16 36.142669 -115.698041 111 15973ft 328kts
24-Aug-18 19:17 36.113292 -115.591455 111 15967ft 328kts
24-Aug-18 19:18 36.084923 -115.487803 111 15530ft 307kts
24-Aug-18 19:19 36.062647 -115.407599 110 13906ft 288kts
24-Aug-18 19:20 36.029697 -115.305244 105 11105ft 283kts
24-Aug-18 19:21 36.022745 -115.225177 91 9777ft 292kts
24-Aug-18 19:22 36.021034 -115.111509 91 8657ft 256kts
24-Aug-18 19:23 36.019109 -115.041779 91 7565ft 231kts
24-Aug-18 19:24 36.017248 -114.963981 91 5966ft 224kts
24-Aug-18 19:25 36.047543 -114.915266 1 5344ft 192kts
24-Aug-18 19:26 36.078154 -114.947413 265 4157ft 167kts
24-Aug-18 19:27 36.073804 -115.001845 269 3610ft 152kts
24-Aug-18 19:28 36.073808 -115.052808 265 3358ft 146kts
24-Aug-18 19:29 36.073711 -115.102923 266 2528ft 146kts
24-Aug-18 19:30 36.073633 -115.147491 270 2123ft 71kts
24-Aug-18 19:31 36.074800 -115.155345 303 2123ft 0kts
24-Aug-18 19:32 36.076742 -115.157842 319 2123ft 18kts
24-Aug-18 19:33 36.078006 -115.153996 89 2123ft 16kts
24-Aug-18 19:34 36.077716 -115.146480 95 2123ft 26kts
24-Aug-18 19:35 36.078757 -115.141630 356 2123ft 12kts
24-Aug-18 19:36 36.081715 -115.140623 45 2123ft 10kts

Navigation Log

Ident Type
Flight plan parsing failed, navigation log unavailable